Time;durP1;ratioP1;P1;durP2;ratioP2;P2;SDS_P1;SDS_P2;PMS_P1;PMS_P2;Temp;Humidity;BMP_temperature;BMP_pressure;BME280_temperature;BME280_humidity;BME280_pressure;Samples;Min_cycle;Max_cycle;Signal;HPM_P1;HPM_P2
2022/01/22 00:00:33;;;;;;;5.53;2.80;;;3.20;97.30;;;;;;5055781;28;20589;-85
2022/01/22 00:02:59;;;;;;;3.70;2.13;;;3.20;97.30;;;;;;5055292;28;20190;-89
2022/01/22 00:05:24;;;;;;;3.13;2.10;;;3.30;97.30;;;;;;5054995;28;20638;-86
2022/01/22 00:07:50;;;;;;;3.40;2.40;;;3.30;97.30;;;;;;5055092;28;20413;-86
2022/01/22 00:10:19;;;;;;;4.60;2.90;;;3.30;97.30;;;;;;5054882;28;20289;-86
2022/01/22 00:15:20;;;;;;;6.10;3.13;;;3.30;97.30;;;;;;5075852;28;20482;-86
2022/01/22 00:17:48;;;;;;;4.40;2.40;;;3.30;97.30;;;;;;5061066;28;20436;-86
2022/01/22 00:20:15;;;;;;;6.73;2.80;;;3.30;97.30;;;;;;5074988;28;20433;-86
2022/01/22 00:22:42;;;;;;;7.33;3.63;;;3.40;97.30;;;;;;5054657;28;20479;-86
2022/01/22 00:25:09;;;;;;;3.83;2.50;;;3.40;97.30;;;;;;5055043;28;20798;-86
2022/01/22 00:27:37;;;;;;;4.40;2.80;;;3.40;97.30;;;;;;5054999;28;20432;-86
2022/01/22 00:30:08;;;;;;;5.93;2.73;;;3.40;97.30;;;;;;5055933;28;20552;-86
2022/01/22 00:32:34;;;;;;;6.27;3.23;;;3.40;97.30;;;;;;5054455;28;20557;-87
2022/01/22 00:34:59;;;;;;;5.80;3.13;;;3.40;97.30;;;;;;5054354;28;20417;-85
2022/01/22 00:37:25;;;;;;;8.60;3.10;;;3.40;97.30;;;;;;5054490;28;20409;-87
2022/01/22 00:39:50;;;;;;;6.80;3.77;;;3.40;97.30;;;;;;5054392;28;20229;-87
2022/01/22 00:42:17;;;;;;;4.67;3.30;;;3.40;97.30;;;;;;5054466;28;20617;-86
2022/01/22 00:44:43;;;;;;;9.57;3.87;;;3.40;97.30;;;;;;5054510;28;20182;-87
2022/01/22 00:47:09;;;;;;;5.50;2.80;;;3.40;97.30;;;;;;5054898;28;20711;-86
2022/01/22 00:49:36;;;;;;;6.13;2.90;;;3.40;97.30;;;;;;5054460;28;20520;-86
2022/01/22 00:52:04;;;;;;;5.77;2.83;;;3.40;97.30;;;;;;5054877;28;20453;-87
2022/01/22 00:54:29;;;;;;;5.57;2.90;;;3.40;97.30;;;;;;5054297;28;20934;-86
2022/01/22 00:56:55;;;;;;;5.37;3.00;;;3.40;97.30;;;;;;5054081;28;20424;-87
2022/01/22 00:59:20;;;;;;;5.40;3.67;;;3.40;97.30;;;;;;5072079;28;20733;-86
2022/01/22 01:01:46;;;;;;;6.43;3.83;;;3.50;97.30;;;;;;5054429;28;20692;-87
2022/01/22 01:04:12;;;;;;;6.23;3.67;;;3.50;97.30;;;;;;5055422;28;20657;-87
2022/01/22 01:06:38;;;;;;;7.63;4.23;;;3.50;97.30;;;;;;5060708;28;20711;-87
2022/01/22 01:09:07;;;;;;;6.47;3.40;;;3.60;97.30;;;;;;5053992;28;20218;-87
2022/01/22 01:11:35;;;;;;;5.00;3.30;;;3.60;97.30;;;;;;5053932;28;20483;-87
2022/01/22 01:14:04;;;;;;;7.17;3.50;;;3.70;97.30;;;;;;5053684;28;20417;-87
2022/01/22 01:16:55;;;;;;;8.50;4.00;;;3.70;97.30;;;;;;5053900;28;20405;-87
2022/01/22 01:35:26;;;;;;;8.33;3.93;;;4.00;97.30;;;;;;5057166;28;20422;-87
2022/01/22 01:37:53;;;;;;;7.57;3.90;;;4.00;97.30;;;;;;5051122;28;20533;-87
2022/01/22 01:40:21;;;;;;;7.10;3.90;;;4.00;97.30;;;;;;5033349;28;20477;-87
2022/01/22 01:45:31;;;;;;;8.13;4.23;;;4.10;97.30;;;;;;5051539;28;20468;-87
2022/01/22 01:48:03;;;;;;;7.20;4.47;;;4.10;97.30;;;;;;5033421;28;20424;-87
2022/01/22 01:50:30;;;;;;;9.53;4.63;;;4.10;97.30;;;;;;5033393;28;20486;-86
2022/01/22 01:55:47;;;;;;;10.67;4.83;;;4.30;97.30;;;;;;5051102;28;20409;-87
2022/01/22 01:58:14;;;;;;;11.07;5.27;;;4.40;97.30;;;;;;5033047;28;20882;-87
2022/01/22 02:00:39;;;;;;;10.87;5.20;;;4.50;97.30;;;;;;5032928;28;20457;-87
2022/01/22 02:03:06;;;;;;;9.50;4.77;;;4.60;97.30;;;;;;5032679;28;20944;-87
2022/01/22 02:05:33;;;;;;;7.20;3.90;;;4.60;97.30;;;;;;5032752;28;20172;-87
2022/01/22 02:07:58;;;;;;;11.63;4.63;;;4.70;97.30;;;;;;5032612;28;20445;-87
2022/01/22 02:10:28;;;;;;;8.27;3.77;;;4.70;97.30;;;;;;5053414;28;21396;-87
2022/01/22 02:23:39;;;;;;;7.10;3.73;;;4.80;97.30;;;;;;5050568;28;20455;-87
2022/01/22 02:26:07;;;;;;;8.53;4.20;;;4.80;97.30;;;;;;5032609;28;20418;-87
2022/01/22 02:28:33;;;;;;;8.53;3.63;;;4.90;97.30;;;;;;5050333;28;20713;-87
2022/01/22 02:31:08;;;;;;;7.30;3.23;;;4.90;97.30;;;;;;5032140;28;20443;-87
2022/01/22 02:33:52;;;;;;;7.30;3.60;;;4.90;97.30;;;;;;5032002;28;20466;-87
2022/01/22 02:36:35;;;;;;;8.67;4.80;;;4.90;97.30;;;;;;5032380;28;20771;-87
2022/01/22 02:39:10;;;;;;;6.50;3.30;;;4.90;97.30;;;;;;5037265;28;20469;-87
2022/01/22 02:41:41;;;;;;;6.50;3.37;;;4.90;97.30;;;;;;5068714;28;20420;-87
2022/01/22 02:44:10;;;;;;;8.43;4.30;;;4.90;97.30;;;;;;5052807;28;20471;-88
2022/01/22 02:46:38;;;;;;;7.20;3.50;;;5.00;97.30;;;;;;5071460;28;20416;-87
2022/01/22 02:49:04;;;;;;;7.17;3.80;;;5.00;97.30;;;;;;5054711;28;20828;-88
2022/01/22 02:51:29;;;;;;;9.50;3.50;;;5.00;97.30;;;;;;5068889;28;20481;-87
2022/01/22 02:53:56;;;;;;;10.40;4.17;;;5.00;97.30;;;;;;5068600;28;20172;-87
2022/01/22 02:56:23;;;;;;;11.67;4.47;;;5.00;97.30;;;;;;5052050;28;20668;-87
2022/01/22 02:58:51;;;;;;;6.33;3.27;;;5.00;97.30;;;;;;5051637;28;20751;-87
2022/01/22 03:01:17;;;;;;;7.73;3.37;;;5.10;97.30;;;;;;5052021;28;20405;-85
2022/01/22 03:03:43;;;;;;;8.03;3.53;;;5.10;97.30;;;;;;5051532;28;20418;-86
2022/01/22 03:06:09;;;;;;;6.73;3.20;;;5.10;97.30;;;;;;5051781;28;20416;-86
2022/01/22 03:08:37;;;;;;;7.77;3.50;;;5.00;97.30;;;;;;5051507;28;20923;-85
2022/01/22 03:11:06;;;;;;;9.37;3.70;;;5.10;97.30;;;;;;5051441;28;20417;-85
2022/01/22 03:14:12;;;;;;;4.77;2.60;;;5.10;97.30;;;;;;5051382;28;20622;-86
2022/01/22 03:18:57;;;;;;;7.53;3.40;;;5.10;97.30;;;;;;5069535;28;21155;-87
2022/01/22 03:29:20;;;;;;;7.03;2.70;;;5.00;97.30;;;;;;5069806;28;20433;-86
2022/01/22 03:31:46;;;;;;;6.07;2.47;;;5.00;97.30;;;;;;5069373;28;20413;-85
2022/01/22 03:34:12;;;;;;;5.30;3.20;;;5.00;97.30;;;;;;5056031;28;20949;-86
2022/01/22 03:36:37;;;;;;;7.93;2.70;;;5.00;97.30;;;;;;5072073;28;20667;-85
2022/01/22 03:39:06;;;;;;;5.43;2.80;;;5.00;97.30;;;;;;5071596;28;20907;-86
2022/01/22 03:41:31;;;;;;;2.33;1.70;;;5.00;97.30;;;;;;5076368;28;20246;-86
2022/01/22 03:43:57;;;;;;;2.20;1.60;;;5.00;97.30;;;;;;5071454;28;20508;-86
2022/01/22 03:46:23;;;;;;;2.03;1.60;;;5.00;97.30;;;;;;5071443;28;20424;-85
2022/01/22 03:48:49;;;;;;;2.77;1.80;;;5.00;97.30;;;;;;5071733;28;20471;-85
2022/01/22 03:51:15;;;;;;;2.43;1.57;;;5.00;97.30;;;;;;5071328;28;20424;-86
2022/01/22 03:53:41;;;;;;;2.07;1.60;;;5.00;97.30;;;;;;5071123;28;20459;-85
2022/01/22 03:56:07;;;;;;;2.90;1.73;;;4.90;97.30;;;;;;5071371;28;20191;-85
2022/01/22 03:58:36;;;;;;;3.10;1.90;;;5.00;97.30;;;;;;5071109;28;20182;-86
2022/01/22 04:01:30;;;;;;;3.33;1.83;;;5.00;97.30;;;;;;5071375;28;20930;-86
2022/01/22 04:04:02;;;;;;;1.47;1.20;;;5.00;97.30;;;;;;5088857;28;20760;-85
2022/01/22 04:08:56;;;;;;;4.10;1.90;;;5.00;97.30;;;;;;5089335;28;20428;-86
2022/01/22 04:11:21;;;;;;;2.13;1.50;;;5.00;97.30;;;;;;5089245;28;20170;-85
2022/01/22 04:13:50;;;;;;;2.47;1.83;;;5.00;97.30;;;;;;5070883;28;20467;-85
2022/01/22 04:16:16;;;;;;;4.17;1.80;;;4.90;97.30;;;;;;5089114;28;20254;-85
2022/01/22 04:26:57;;;;;;;3.27;1.83;;;4.80;97.30;;;;;;5088791;28;20473;-86
2022/01/22 04:29:24;;;;;;;2.43;1.30;;;4.80;97.30;;;;;;5069354;28;21095;-85
2022/01/22 04:31:50;;;;;;;4.90;2.27;;;4.90;97.30;;;;;;5070628;28;20448;-84
2022/01/22 04:34:16;;;;;;;2.63;1.53;;;4.80;97.30;;;;;;5066888;28;20425;-85
2022/01/22 04:36:43;;;;;;;2.77;1.77;;;4.80;97.30;;;;;;5054541;28;21028;-85
2022/01/22 04:39:10;;;;;;;2.87;1.57;;;4.80;97.30;;;;;;5046822;28;20267;-86
2022/01/22 04:41:36;;;;;;;1.83;1.40;;;4.80;97.30;;;;;;5034669;28;20436;-85
2022/01/22 04:44:04;;;;;;;2.90;1.80;;;4.80;97.30;;;;;;5034252;28;20415;-85
2022/01/22 04:46:59;;;;;;;3.10;1.70;;;4.80;97.30;;;;;;5034386;28;20932;-86
2022/01/22 04:57:13;;;;;;;5.83;1.80;;;4.70;97.30;;;;;;5052463;28;20501;-86
2022/01/22 04:59:38;;;;;;;2.40;1.30;;;4.60;97.30;;;;;;5034051;28;20516;-85
2022/01/22 05:02:04;;;;;;;3.37;2.07;;;4.60;97.30;;;;;;5034025;28;20932;-86
2022/01/22 05:04:29;;;;;;;4.40;1.60;;;4.50;97.30;;;;;;5033984;28;20183;-86
2022/01/22 05:06:55;;;;;;;3.37;1.60;;;4.60;97.30;;;;;;5034288;28;20180;-86
2022/01/22 05:09:20;;;;;;;2.37;1.67;;;4.60;97.30;;;;;;5033860;28;20187;-85
2022/01/22 05:11:46;;;;;;;4.57;1.80;;;4.60;97.30;;;;;;5051856;28;20178;-85
2022/01/22 05:14:11;;;;;;;1.50;1.50;;;4.60;97.30;;;;;;5033700;28;20226;-85
2022/01/22 05:16:38;;;;;;;6.03;2.80;;;4.60;97.30;;;;;;5033949;28;20176;-86
2022/01/22 05:19:11;;;;;;;2.60;1.40;;;4.50;97.30;;;;;;5034236;28;20670;-86
2022/01/22 05:21:38;;;;;;;3.57;2.03;;;4.50;97.30;;;;;;5066018;28;20407;-85
2022/01/22 05:24:09;;;;;;;2.27;1.70;;;4.50;97.30;;;;;;5072143;28;20418;-86
2022/01/22 05:37:06;;;;;;;2.33;1.70;;;4.30;97.30;;;;;;5066362;28;20430;-86
2022/01/22 05:39:32;;;;;;;3.13;2.00;;;4.30;97.30;;;;;;5058257;28;21013;-86
2022/01/22 05:42:01;;;;;;;3.70;1.87;;;4.30;97.30;;;;;;5072767;28;20788;-86
2022/01/22 05:44:29;;;;;;;3.33;2.10;;;4.30;97.30;;;;;;5090630;28;20420;-85
2022/01/22 05:46:57;;;;;;;2.73;1.17;;;4.30;97.30;;;;;;5072292;28;20427;-86
2022/01/22 05:49:25;;;;;;;3.23;1.90;;;4.30;97.30;;;;;;5072475;28;20447;-86
2022/01/22 05:51:53;;;;;;;3.93;1.77;;;4.20;97.30;;;;;;5072410;28;20486;-86
2022/01/22 05:59:39;;;;;;;1.30;1.20;;;4.20;97.30;;;;;;5091522;28;20838;-86
2022/01/22 06:02:13;;;;;;;2.07;1.30;;;4.20;97.30;;;;;;5072866;28;20466;-86
2022/01/22 06:04:40;;;;;;;3.10;1.83;;;4.20;97.30;;;;;;5073060;28;20793;-87
2022/01/22 06:07:07;;;;;;;5.67;1.83;;;4.20;97.30;;;;;;5073004;28;20416;-87
2022/01/22 06:09:34;;;;;;;5.27;2.13;;;4.20;97.30;;;;;;5073382;28;20481;-87
2022/01/22 06:14:28;;;;;;;4.80;1.60;;;4.20;97.30;;;;;;5090178;28;20519;-87
2022/01/22 06:16:54;;;;;;;2.87;1.60;;;4.20;97.30;;;;;;5093894;28;20472;-87
2022/01/22 06:19:19;;;;;;;2.10;1.43;;;4.20;97.30;;;;;;5079501;28;20276;-85
2022/01/22 06:21:45;;;;;;;2.20;1.53;;;4.20;97.30;;;;;;5073767;28;20170;-86
2022/01/22 06:24:12;;;;;;;2.37;1.60;;;4.20;97.30;;;;;;5091336;28;20163;-86
2022/01/22 06:26:38;;;;;;;2.77;1.47;;;4.20;97.30;;;;;;5072676;28;20637;-85
2022/01/22 06:29:04;;;;;;;3.20;1.80;;;4.20;97.30;;;;;;5090768;28;20489;-86
2022/01/22 06:31:30;;;;;;;3.13;1.80;;;4.20;97.30;;;;;;5089173;28;20602;-86
2022/01/22 06:33:58;;;;;;;2.57;1.30;;;4.20;97.30;;;;;;5067961;28;20989;-85
2022/01/22 06:36:23;;;;;;;2.57;1.73;;;4.20;97.30;;;;;;5051445;28;20203;-86
2022/01/22 06:38:55;;;;;;;2.50;1.33;;;4.20;97.30;;;;;;5051363;28;20564;-85
2022/01/22 06:44:05;;;;;;;2.40;1.80;;;4.20;97.30;;;;;;5069654;28;20435;-86
2022/01/22 06:46:31;;;;;;;9.40;1.67;;;4.20;97.30;;;;;;5051728;28;20417;-86
2022/01/22 06:48:56;;;;;;;4.20;2.00;;;4.30;97.30;;;;;;5051903;28;20282;-85
2022/01/22 06:51:22;;;;;;;5.70;2.30;;;4.30;97.30;;;;;;5052112;28;20656;-85
2022/01/22 06:53:49;;;;;;;4.33;2.40;;;4.30;97.30;;;;;;5052152;28;20355;-85
2022/01/22 06:56:20;;;;;;;3.50;2.10;;;4.30;97.30;;;;;;5051925;28;20421;-86
2022/01/22 06:58:46;;;;;;;7.40;2.10;;;4.30;97.30;;;;;;5051773;28;20414;-85
2022/01/22 07:01:11;;;;;;;6.50;2.50;;;4.30;97.30;;;;;;5051595;28;20422;-86
2022/01/22 07:03:37;;;;;;;3.63;2.30;;;4.30;97.30;;;;;;5052130;28;20402;-87
2022/01/22 07:06:02;;;;;;;5.80;2.30;;;4.20;97.30;;;;;;5052165;28;20186;-86
2022/01/22 07:08:28;;;;;;;8.00;3.83;;;4.20;97.30;;;;;;5051851;28;20179;-85
2022/01/22 07:10:54;;;;;;;6.80;2.07;;;4.20;97.30;;;;;;5051777;28;20603;-86
2022/01/22 07:13:19;;;;;;;3.20;2.00;;;4.20;97.30;;;;;;5051608;28;20215;-86
2022/01/22 07:15:45;;;;;;;5.60;2.23;;;4.20;97.30;;;;;;5051817;28;20448;-85
2022/01/22 07:18:13;;;;;;;3.97;2.13;;;4.20;97.30;;;;;;5052117;28;20536;-86
2022/01/22 07:20:40;;;;;;;4.50;2.63;;;4.20;97.30;;;;;;5053904;28;20195;-84
2022/01/22 07:25:44;;;;;;;5.93;2.20;;;4.20;97.30;;;;;;5071928;28;20470;-86
2022/01/22 07:28:11;;;;;;;7.07;3.03;;;4.20;97.30;;;;;;5053290;28;20428;-86
2022/01/22 07:30:38;;;;;;;6.43;2.60;;;4.20;97.30;;;;;;5053132;28;20848;-87
2022/01/22 07:33:04;;;;;;;4.23;2.63;;;4.20;97.30;;;;;;5053822;28;20461;-86
2022/01/22 07:35:33;;;;;;;3.80;2.40;;;4.20;97.30;;;;;;5037203;28;20429;-86
2022/01/22 07:38:02;;;;;;;6.57;3.13;;;4.20;97.30;;;;;;5032873;28;20430;-86
2022/01/22 07:40:28;;;;;;;4.07;2.43;;;4.20;97.30;;;;;;5031563;28;20553;-86
2022/01/22 07:42:55;;;;;;;10.43;3.83;;;4.20;97.30;;;;;;5030985;28;20474;-85
2022/01/22 07:45:21;;;;;;;11.60;2.63;;;4.20;97.30;;;;;;5036160;28;20415;-86
2022/01/22 07:47:46;;;;;;;9.73;2.77;;;4.20;97.30;;;;;;5032203;28;20457;-86
2022/01/22 07:50:12;;;;;;;6.97;2.93;;;4.20;97.30;;;;;;5031490;28;20208;-86
2022/01/22 07:52:38;;;;;;;5.53;2.97;;;4.30;97.30;;;;;;5031378;28;20494;-86
2022/01/22 07:55:04;;;;;;;4.80;2.87;;;4.30;97.30;;;;;;5031859;28;20639;-86
2022/01/22 07:57:30;;;;;;;7.20;2.53;;;4.30;97.30;;;;;;5033419;28;20266;-83
2022/01/22 07:59:56;;;;;;;5.63;3.07;;;4.30;97.30;;;;;;5032251;28;20460;-86
2022/01/22 08:02:21;;;;;;;6.57;2.87;;;4.30;97.30;;;;;;5033805;28;20194;-86
2022/01/22 08:04:47;;;;;;;4.60;2.63;;;4.30;97.30;;;;;;5052789;28;20184;-85
2022/01/22 08:07:13;;;;;;;5.30;3.20;;;4.30;97.30;;;;;;5033355;28;20240;-86
2022/01/22 08:09:38;;;;;;;5.30;2.80;;;4.30;97.30;;;;;;5036368;28;20207;-86
2022/01/22 08:12:04;;;;;;;13.53;2.97;;;4.30;97.30;;;;;;5036809;28;20555;-86
2022/01/22 08:14:30;;;;;;;6.80;2.97;;;4.30;97.30;;;;;;5036472;28;20410;-86
2022/01/22 08:16:55;;;;;;;5.00;2.63;;;4.30;97.30;;;;;;5037710;28;20410;-86
2022/01/22 08:19:23;;;;;;;8.10;3.20;;;4.30;97.30;;;;;;5034423;28;20561;-86
2022/01/22 08:21:48;;;;;;;6.50;2.50;;;4.30;97.30;;;;;;5051803;28;20183;-86
2022/01/22 08:24:15;;;;;;;16.33;7.17;;;4.30;97.30;;;;;;5052778;28;20410;-87
2022/01/22 08:26:49;;;;;;;17.70;6.53;;;4.40;97.30;;;;;;5034322;28;20639;-86
2022/01/22 08:29:14;;;;;;;20.57;7.50;;;4.40;97.30;;;;;;5034977;28;20437;-86
2022/01/22 08:36:58;;;;;;;16.63;5.70;;;4.50;97.30;;;;;;5076576;28;20436;-85
2022/01/22 08:39:25;;;;;;;11.17;5.47;;;4.50;97.30;;;;;;5075329;28;21142;-86
2022/01/22 08:41:50;;;;;;;8.87;4.30;;;4.50;97.30;;;;;;5056554;28;20554;-86
2022/01/22 08:44:16;;;;;;;6.67;3.63;;;4.50;97.30;;;;;;5056936;28;20405;-86
2022/01/22 08:46:42;;;;;;;11.33;3.70;;;4.60;97.30;;;;;;5054548;28;20229;-86
2022/01/22 08:49:08;;;;;;;7.03;3.47;;;4.60;97.30;;;;;;5072711;28;20494;-86
2022/01/22 08:51:38;;;;;;;5.17;3.37;;;4.60;97.30;;;;;;5054577;28;20213;-85
2022/01/22 08:54:04;;;;;;;9.87;3.20;;;4.60;97.30;;;;;;5055649;28;20464;-86
2022/01/22 08:56:30;;;;;;;9.93;3.50;;;4.60;97.30;;;;;;5059947;28;20882;-86
2022/01/22 08:58:56;;;;;;;18.00;4.10;;;4.70;97.30;;;;;;5054313;28;20484;-86
2022/01/22 09:01:23;;;;;;;14.43;4.17;;;4.70;97.30;;;;;;5054060;28;20633;-86
2022/01/22 09:03:49;;;;;;;11.43;4.37;;;4.70;97.30;;;;;;5054157;28;20429;-85
2022/01/22 09:06:17;;;;;;;9.63;3.43;;;4.70;97.30;;;;;;5054119;28;20426;-87
2022/01/22 09:08:45;;;;;;;6.33;3.00;;;4.70;97.30;;;;;;5054238;28;20681;-86
2022/01/22 09:11:11;;;;;;;12.00;4.10;;;4.70;97.30;;;;;;5053816;28;20428;-86
2022/01/22 09:13:36;;;;;;;11.67;3.40;;;4.80;97.30;;;;;;5054154;28;21039;-87
2022/01/22 09:16:03;;;;;;;6.20;3.23;;;4.80;97.30;;;;;;5054305;28;20413;-85
2022/01/22 09:18:29;;;;;;;8.57;3.40;;;4.80;97.30;;;;;;5054760;28;20671;-86
2022/01/22 09:21:02;;;;;;;5.63;3.00;;;4.80;97.30;;;;;;5072887;28;20487;-86
2022/01/22 09:23:29;;;;;;;5.90;3.20;;;4.80;97.30;;;;;;5066162;28;20193;-86
2022/01/22 09:25:55;;;;;;;4.50;2.77;;;4.80;97.30;;;;;;5056171;28;20448;-86
2022/01/22 09:28:20;;;;;;;11.40;3.80;;;4.80;97.30;;;;;;5078147;28;20413;-87
2022/01/22 09:30:47;;;;;;;8.90;4.83;;;4.90;97.30;;;;;;5053819;28;20352;-86
2022/01/22 09:33:13;;;;;;;6.07;3.23;;;4.90;97.30;;;;;;5053671;28;20293;-86
2022/01/22 09:35:39;;;;;;;5.70;3.50;;;4.90;97.30;;;;;;5037250;28;20434;-85
2022/01/22 09:38:05;;;;;;;7.67;2.60;;;4.90;97.30;;;;;;5034321;28;20172;-83
2022/01/22 09:40:30;;;;;;;8.90;2.80;;;4.90;97.30;;;;;;5035951;28;20466;-84
2022/01/22 09:42:59;;;;;;;8.00;3.80;;;4.90;97.30;;;;;;5035575;28;20270;-86
2022/01/22 09:45:25;;;;;;;7.27;2.67;;;4.90;97.30;;;;;;5036202;28;20653;-86
2022/01/22 09:47:51;;;;;;;10.30;3.73;;;5.00;97.30;;;;;;5054220;28;20962;-86
2022/01/22 09:50:19;;;;;;;7.63;2.87;;;5.00;97.30;;;;;;5035944;28;20438;-86
2022/01/22 09:52:45;;;;;;;10.00;2.90;;;5.00;97.30;;;;;;5034289;28;20253;-86
2022/01/22 09:55:11;;;;;;;4.80;2.47;;;5.00;97.30;;;;;;5033366;28;20415;-86
2022/01/22 09:57:37;;;;;;;7.73;3.00;;;5.00;97.30;;;;;;5033350;28;20418;-87
2022/01/22 10:00:15;;;;;;;9.10;3.10;;;5.10;97.30;;;;;;5033788;28;20955;-87
2022/01/22 10:02:43;;;;;;;7.47;3.33;;;5.10;97.30;;;;;;5054820;28;20406;-86
2022/01/22 10:05:29;;;;;;;9.17;4.00;;;5.10;97.30;;;;;;5032706;28;20418;-86
2022/01/22 10:08:15;;;;;;;9.97;3.97;;;5.10;97.30;;;;;;5050996;28;20471;-87
2022/01/22 10:10:40;;;;;;;7.83;4.10;;;5.20;97.30;;;;;;5050564;28;20441;-86
2022/01/22 10:13:06;;;;;;;5.60;3.00;;;5.20;97.30;;;;;;5035089;28;20541;-86
2022/01/22 10:15:35;;;;;;;5.03;3.10;;;5.20;97.30;;;;;;5033101;28;20179;-86
2022/01/22 10:18:02;;;;;;;12.00;3.80;;;5.20;97.30;;;;;;5032364;28;20171;-86
2022/01/22 10:20:33;;;;;;;10.60;3.87;;;5.30;97.30;;;;;;5050600;28;20948;-86
2022/01/22 10:23:37;;;;;;;7.83;4.13;;;5.30;97.30;;;;;;5032060;28;20928;-86
2022/01/22 10:26:04;;;;;;;8.63;3.07;;;5.30;97.30;;;;;;4982922;28;20425;-86
2022/01/22 10:28:38;;;;;;;5.67;3.33;;;5.40;97.30;;;;;;5032424;28;20963;-84
2022/01/22 10:31:07;;;;;;;13.27;3.43;;;5.40;97.30;;;;;;5035088;28;20935;-86
2022/01/22 10:33:35;;;;;;;11.40;4.03;;;5.40;97.30;;;;;;5031948;28;20466;-86
2022/01/22 10:36:19;;;;;;;8.43;2.90;;;5.40;97.30;;;;;;5069153;28;20421;-86
2022/01/22 10:38:50;;;;;;;19.30;4.00;;;5.40;97.30;;;;;;5057613;28;20834;-86
2022/01/22 10:41:19;;;;;;;6.13;2.80;;;5.50;97.30;;;;;;5073900;28;20906;-86
2022/01/22 10:43:55;;;;;;;7.13;3.17;;;5.50;97.30;;;;;;5072995;28;20430;-86
2022/01/22 10:48:57;;;;;;;13.90;3.47;;;5.60;97.30;;;;;;5093438;28;20439;-86
2022/01/22 10:51:23;;;;;;;7.83;3.10;;;5.60;97.30;;;;;;5072233;28;20463;-87
2022/01/22 10:53:59;;;;;;;6.27;3.40;;;5.60;97.30;;;;;;5074089;28;20539;-86
2022/01/22 10:56:27;;;;;;;6.77;2.60;;;5.60;97.30;;;;;;5074984;28;20436;-86
2022/01/22 10:58:58;;;;;;;10.77;3.10;;;5.70;97.30;;;;;;5073087;28;20519;-86
2022/01/22 11:01:29;;;;;;;8.30;3.63;;;5.70;97.30;;;;;;5074080;28;20452;-86
2022/01/22 11:04:04;;;;;;;5.33;3.50;;;5.70;97.30;;;;;;5074576;28;20440;-87
2022/01/22 11:06:31;;;;;;;11.50;2.83;;;5.70;97.30;;;;;;5073653;28;20469;-86
2022/01/22 11:08:57;;;;;;;8.83;3.30;;;5.80;97.30;;;;;;5073601;28;20444;-86
2022/01/22 11:11:23;;;;;;;6.00;2.87;;;5.80;97.30;;;;;;5074499;28;20408;-86
2022/01/22 11:13:50;;;;;;;7.20;4.00;;;5.80;97.30;;;;;;5074338;28;20455;-86
2022/01/22 11:16:17;;;;;;;6.63;3.10;;;5.80;97.30;;;;;;5074913;28;20408;-86
2022/01/22 11:18:48;;;;;;;9.10;3.87;;;5.80;97.30;;;;;;5074290;28;20807;-86
2022/01/22 11:21:15;;;;;;;6.70;3.50;;;5.80;97.30;;;;;;5074600;28;20497;-87
2022/01/22 11:23:42;;;;;;;6.37;2.80;;;5.80;97.30;;;;;;5074491;28;20482;-87
2022/01/22 11:26:08;;;;;;;8.03;3.90;;;5.80;97.30;;;;;;5074305;28;20473;-86
2022/01/22 11:28:34;;;;;;;8.20;3.10;;;5.90;97.30;;;;;;5073817;28;20440;-86
2022/01/22 11:31:01;;;;;;;6.90;2.93;;;5.90;97.30;;;;;;5071890;28;20459;-86
2022/01/22 11:33:27;;;;;;;8.77;4.40;;;5.90;97.30;;;;;;5071748;28;20202;-87
2022/01/22 11:36:04;;;;;;;8.40;2.77;;;5.90;97.30;;;;;;5072528;28;20404;-86
2022/01/22 11:38:31;;;;;;;9.07;3.53;;;5.90;97.30;;;;;;5069534;28;20408;-86
2022/01/22 11:41:08;;;;;;;9.27;3.90;;;6.00;97.30;;;;;;5051477;28;20420;-86
2022/01/22 11:46:39;;;;;;;13.40;3.33;;;6.00;97.30;;;;;;5079431;28;20417;-86
2022/01/22 11:49:09;;;;;;;3.53;2.83;;;5.90;97.30;;;;;;5056141;28;20449;-86
2022/01/22 11:51:35;;;;;;;7.30;4.40;;;5.90;97.30;;;;;;5056105;28;20429;-87
2022/01/22 11:54:00;;;;;;;5.97;3.43;;;5.90;97.30;;;;;;5055754;28;20460;-86
2022/01/22 11:56:30;;;;;;;7.67;3.23;;;5.90;97.30;;;;;;5055984;28;20228;-85
2022/01/22 11:58:56;;;;;;;8.67;5.77;;;5.90;97.30;;;;;;5056383;28;20195;-87
2022/01/22 12:01:45;;;;;;;5.40;3.67;;;5.90;97.30;;;;;;5055663;28;20445;-87
2022/01/22 12:04:14;;;;;;;6.03;3.27;;;6.00;97.30;;;;;;5057529;28;20175;-87
2022/01/22 12:07:00;;;;;;;11.50;4.13;;;6.00;97.30;;;;;;5060803;28;20421;-86
2022/01/22 12:09:26;;;;;;;5.23;3.50;;;6.00;97.30;;;;;;5058065;28;20986;-87
2022/01/22 12:14:50;;;;;;;5.23;3.63;;;6.00;97.30;;;;;;5051868;28;21108;-86
2022/01/22 12:17:24;;;;;;;5.70;3.00;;;6.00;97.30;;;;;;5058139;28;20413;-86
2022/01/22 12:22:35;;;;;;;6.53;3.30;;;6.00;97.30;;;;;;5075584;28;20413;-86
2022/01/22 12:25:07;;;;;;;26.47;8.70;;;6.00;97.30;;;;;;5057268;28;20206;-86
2022/01/22 12:27:45;;;;;;;15.30;6.30;;;6.00;97.30;;;;;;5057741;28;20466;-86
2022/01/22 12:30:12;;;;;;;18.53;6.10;;;6.00;97.30;;;;;;5057360;28;20532;-86
2022/01/22 12:32:49;;;;;;;11.00;4.40;;;6.00;97.30;;;;;;5057515;28;20526;-86
2022/01/22 12:35:31;;;;;;;8.27;2.93;;;6.00;97.30;;;;;;5056953;28;20421;-86
2022/01/22 12:38:20;;;;;;;6.20;3.37;;;6.10;97.30;;;;;;5057324;28;20410;-86
2022/01/22 12:40:47;;;;;;;13.03;4.43;;;6.00;97.30;;;;;;5075403;28;20441;-86
2022/01/22 12:43:25;;;;;;;10.23;4.80;;;6.00;97.30;;;;;;5057161;28;20405;-86
2022/01/22 12:46:01;;;;;;;14.00;5.20;;;6.00;97.30;;;;;;5056836;28;20500;-86
2022/01/22 12:48:30;;;;;;;7.07;3.13;;;6.10;97.30;;;;;;5058426;28;20401;-86
2022/01/22 12:51:05;;;;;;;9.70;3.73;;;6.10;97.30;;;;;;5058364;28;20515;-86
2022/01/22 12:53:32;;;;;;;8.20;2.97;;;6.10;97.30;;;;;;5057846;28;20452;-87
2022/01/22 12:58:26;;;;;;;8.30;3.13;;;6.10;97.30;;;;;;5075846;28;20508;-87
2022/01/22 13:01:07;;;;;;;5.70;2.93;;;6.10;97.30;;;;;;5075507;28;20433;-86
2022/01/22 13:03:39;;;;;;;5.77;2.87;;;6.20;97.30;;;;;;5074781;28;20422;-86
2022/01/22 13:06:04;;;;;;;7.97;3.43;;;6.20;97.30;;;;;;5057003;28;20470;-86
2022/01/22 13:08:32;;;;;;;6.70;2.80;;;6.30;97.30;;;;;;5056145;28;20976;-87
2022/01/22 13:11:01;;;;;;;5.10;2.90;;;6.30;97.30;;;;;;5056234;28;20413;-87
2022/01/22 13:13:28;;;;;;;5.80;2.70;;;6.30;97.30;;;;;;5055969;28;20460;-86
2022/01/22 13:16:05;;;;;;;4.20;3.00;;;6.20;97.30;;;;;;5056292;28;20406;-87
2022/01/22 13:18:58;;;;;;;5.27;2.97;;;6.20;97.30;;;;;;5056395;28;20416;-86
2022/01/22 13:21:32;;;;;;;13.10;3.13;;;6.20;97.30;;;;;;5056519;28;20432;-86
2022/01/22 13:24:01;;;;;;;8.90;3.00;;;6.30;97.30;;;;;;5044473;28;20448;-86
2022/01/22 13:26:54;;;;;;;5.57;3.20;;;6.30;97.30;;;;;;5077424;28;20413;-86
2022/01/22 13:29:32;;;;;;;3.27;2.60;;;6.30;97.30;;;;;;5078906;28;20497;-85
2022/01/22 13:32:03;;;;;;;5.73;3.40;;;6.30;97.30;;;;;;5056435;28;20444;-87
2022/01/22 13:34:44;;;;;;;8.73;4.67;;;6.40;97.30;;;;;;5076939;28;20556;-87
2022/01/22 13:40:08;;;;;;;6.17;2.50;;;6.40;97.30;;;;;;5074853;28;20465;-86
2022/01/22 13:45:07;;;;;;;4.83;3.03;;;6.50;97.30;;;;;;5073712;28;20942;-86
2022/01/22 13:48:29;;;;;;;8.23;6.23;;;6.50;97.30;;;;;;5074762;28;20398;-86
2022/01/22 13:50:54;;;;;;;13.37;8.67;;;6.50;97.30;;;;;;5056893;28;20437;-86
2022/01/22 13:53:21;;;;;;;8.80;5.03;;;6.50;97.30;;;;;;5056718;28;20897;-86
2022/01/22 13:55:59;;;;;;;6.70;4.50;;;6.40;97.30;;;;;;5056159;28;20175;-86
2022/01/22 13:58:25;;;;;;;9.73;3.87;;;6.40;97.30;;;;;;5056199;28;20937;-86
2022/01/22 14:00:51;;;;;;;9.30;5.13;;;6.40;97.30;;;;;;5073867;28;20513;-86
2022/01/22 14:05:51;;;;;;;5.10;3.57;;;6.40;97.30;;;;;;5073006;28;20186;-86
2022/01/22 14:08:28;;;;;;;8.93;3.80;;;6.40;97.30;;;;;;5054790;28;20414;-86
2022/01/22 14:11:05;;;;;;;10.27;3.40;;;6.30;97.30;;;;;;5035694;28;20987;-86
2022/01/22 14:13:31;;;;;;;12.33;3.60;;;6.30;97.30;;;;;;5035842;28;20486;-87
2022/01/22 14:16:19;;;;;;;7.60;3.80;;;6.30;97.30;;;;;;5036078;28;20438;-87
2022/01/22 14:18:46;;;;;;;34.03;13.57;;;6.20;97.30;;;;;;5035624;28;20160;-86
2022/01/22 14:21:16;;;;;;;7.90;3.30;;;6.20;97.30;;;;;;5036140;28;20433;-86
2022/01/22 14:23:42;;;;;;;8.63;3.87;;;6.20;97.30;;;;;;5036946;28;20471;-86
2022/01/22 14:26:24;;;;;;;10.90;3.50;;;6.20;97.30;;;;;;5037036;28;20421;-86
2022/01/22 14:29:04;;;;;;;20.53;3.60;;;6.10;97.30;;;;;;5055830;28;20403;-85
2022/01/22 14:31:34;;;;;;;6.70;4.13;;;6.10;97.30;;;;;;5054331;28;20422;-86
2022/01/22 14:34:07;;;;;;;12.23;2.97;;;6.10;97.30;;;;;;5056031;28;20454;-86
2022/01/22 14:36:39;;;;;;;8.20;3.37;;;6.10;97.30;;;;;;5057489;28;20778;-87
2022/01/22 14:39:17;;;;;;;7.20;3.40;;;6.10;97.30;;;;;;5063990;28;20479;-86
2022/01/22 14:44:44;;;;;;;8.07;3.40;;;6.10;97.30;;;;;;5094698;28;20480;-86
2022/01/22 14:47:14;;;;;;;9.90;3.97;;;6.10;97.30;;;;;;5076029;28;20778;-87
2022/01/22 14:49:42;;;;;;;9.80;3.60;;;6.10;97.30;;;;;;5074050;28;20448;-86
2022/01/22 14:52:10;;;;;;;7.40;4.10;;;6.10;97.30;;;;;;5074831;28;20926;-87
2022/01/22 14:54:39;;;;;;;11.50;3.60;;;6.10;97.30;;;;;;5074807;28;20401;-86
2022/01/22 14:57:08;;;;;;;10.43;3.43;;;6.10;97.30;;;;;;5093025;28;20436;-87
2022/01/22 14:59:35;;;;;;;7.20;2.83;;;6.10;97.30;;;;;;5074887;28;20533;-87
2022/01/22 15:02:01;;;;;;;13.07;3.03;;;6.10;97.30;;;;;;5074914;28;20403;-86